Ishpeming, MI (49849)

1:14 AM EST on December 06, 2016 (GMT -0500)
Green Creek | | Change Station

Elev 1450 ft 46.43 °N, 87.78 °W | Updated 14 seconds ago

Overcast
Overcast
31.8 °F
Feels Like 32 °F
N
0.0
Wind Variable Wind from North
Gusts 0.0 mph

Today
High -- | Low -- °F
--% Chance of Precip.
Yesterday
High -- | Low -- °F
Precip. -- in
Pressure 29.85 in
Visibility 10.0 miles
Clouds Scattered Clouds 4100 ft
Scattered Clouds 4800 ft
Overcast 6500 ft
Windchill 32 °F
Dew Point 27 °F
Humidity 83%
Rainfall 0.00 in
Snow Depth Not available.
8:20 AM 5:03 PM
Waxing Crescent, 38% visible
METAR KSAW 060556Z AUTO 15005KT 10SM SCT041 SCT048 OVC065 00/00 A2985 RMK AO2 T00021003 10002 21008 400251025
Pressure 29.85 in
Visibility 10.0 miles
Clouds Scattered Clouds 4100 ft
Scattered Clouds 4800 ft
Overcast 6500 ft
Windchill 32 °F
Dew Point 27 °F
Humidity 83%
Rainfall 0.00 in
Snow Depth Not available.
8:20 AM 5:03 PM
Waxing Crescent, 38% visible
METAR KSAW 060556Z AUTO 15005KT 10SM SCT041 SCT048 OVC065 00/00 A2985 RMK AO2 T00021003 10002 21008 400251025

10-Day Weather Forecast

Almanac

Astronomy

Dec. 06, 2016 Rise Set
Actual Time
Civil Twilight
Nautical Twilight
Astronomical Twilight
Moon
Length of Visible Light
Length of Day
Tomorrow will be .
, % of the Moon is Illuminated

Today's Extremes

State Highs State Lows

Community

WunderPhotos

Upload Photos

1,955,932 photos uploaded!

WunderBlog® & News

Nearby

Air Quality

  Air Quality AQ Index Pollutant
Not available.

Snow Depth

Station Depth Elevation

Earthquake Activity

City Distance Mag. Time & Date
Minimum magnitude displayed is 2.5.

Coastal Water Temperatures

Place Temperature

Stations

Nearby Weather Stations

Station Location Temp. Windchill Dew Point Humidity Wind Precip. Elev Updated Type
                   

Watches & Warnings

There are currently no watches in effect.